Time;durP1;ratioP1;P1;durP2;ratioP2;P2;SDS_P1;SDS_P2;PMS_P1;PMS_P2;Temp;Humidity;BMP_temperature;BMP_pressure;BME280_temperature;BME280_humidity;BME280_pressure;Samples;Min_cycle;Max_cycle;Signal;HPM_P1;HPM_P2
2021/03/27 00:00:14;;;;;;;5.35;2.72;;;9.50;99.90;;;;;;5131759;27;20023;-56
2021/03/27 00:02:53;;;;;;;5.20;2.08;;;9.40;99.90;;;;;;5132738;27;20039;-55
2021/03/27 00:05:24;;;;;;;14.10;4.13;;;9.30;99.90;;;;;;5127662;27;20023;-51
2021/03/27 00:08:20;;;;;;;5.60;1.60;;;9.20;99.90;;;;;;5138769;27;20058;-55
2021/03/27 00:11:01;;;;;;;15.45;2.10;;;9.20;99.90;;;;;;5129523;27;20065;-51
2021/03/27 00:13:46;;;;;;;11.13;1.98;;;9.00;99.90;;;;;;5126226;27;20050;-52
2021/03/27 00:16:24;;;;;;;7.45;1.70;;;8.80;99.90;;;;;;5130931;27;20459;-55
2021/03/27 00:19:10;;;;;;;10.20;3.00;;;8.80;99.90;;;;;;5137733;27;20040;-54
2021/03/27 00:21:52;;;;;;;4.18;2.80;;;8.80;99.90;;;;;;5132041;27;20550;-53
2021/03/27 00:24:53;;;;;;;10.15;3.55;;;8.70;99.90;;;;;;5131101;27;20450;-53
2021/03/27 00:27:26;;;;;;;10.13;3.83;;;8.70;99.90;;;;;;5116559;27;20512;-55
2021/03/27 00:29:56;;;;;;;10.10;4.35;;;8.60;99.90;;;;;;5132355;27;20411;-54
2021/03/27 00:32:30;;;;;;;9.52;4.05;;;8.50;99.90;;;;;;5125284;27;20114;-55
2021/03/27 00:35:00;;;;;;;5.75;3.67;;;8.50;99.90;;;;;;5131024;27;20027;-52
2021/03/27 00:37:28;;;;;;;11.20;4.13;;;8.50;99.90;;;;;;5134917;27;20032;-54
2021/03/27 00:40:06;;;;;;;11.82;3.92;;;8.30;99.90;;;;;;5129358;27;20114;-52
2021/03/27 00:42:37;;;;;;;7.30;2.85;;;8.20;99.90;;;;;;5127020;27;20090;-55
2021/03/27 00:45:12;;;;;;;5.07;2.60;;;8.20;99.90;;;;;;5135911;27;20023;-56
2021/03/27 00:47:40;;;;;;;6.55;3.33;;;8.10;99.90;;;;;;5130564;27;20034;-53
2021/03/27 00:50:20;;;;;;;3.58;2.53;;;8.10;99.90;;;;;;5126596;27;20052;-51
2021/03/27 00:52:51;;;;;;;4.60;1.50;;;8.00;99.90;;;;;;5127049;27;20437;-54
2021/03/27 00:55:27;;;;;;;4.43;1.95;;;7.90;99.90;;;;;;5131257;27;20038;-55
2021/03/27 00:57:58;;;;;;;9.60;2.50;;;7.90;99.90;;;;;;5131493;27;20034;-55
2021/03/27 01:00:40;;;;;;;3.83;1.48;;;7.80;99.90;;;;;;5131607;27;20027;-56
2021/03/27 01:03:14;;;;;;;2.40;1.95;;;7.70;99.90;;;;;;5108209;27;20023;-54
2021/03/27 01:05:41;;;;;;;;;;;7.70;99.90;;;;;;5130984;27;20027;-55
2021/03/27 01:08:10;;;;;;;3.10;2.58;;;7.70;99.90;;;;;;5130633;27;20318;-51
2021/03/27 01:10:46;;;;;;;5.65;3.70;;;7.70;99.90;;;;;;5131640;27;20364;-56
2021/03/27 01:13:17;;;;;;;5.05;2.80;;;7.60;99.90;;;;;;5131982;27;20023;-54
2021/03/27 01:15:50;;;;;;;4.28;3.35;;;7.60;99.90;;;;;;5126808;27;20488;-53
2021/03/27 01:18:21;;;;;;;3.22;2.40;;;7.50;99.90;;;;;;5131384;27;20400;-54
2021/03/27 01:20:52;;;;;;;4.40;2.83;;;7.50;99.90;;;;;;5130960;27;20091;-53
2021/03/27 01:23:19;;;;;;;5.28;2.95;;;7.50;99.90;;;;;;5128898;27;20099;-51
2021/03/27 01:25:45;;;;;;;4.03;3.28;;;7.50;99.90;;;;;;5130838;27;20023;-51
2021/03/27 01:28:38;;;;;;;6.47;3.17;;;7.50;99.90;;;;;;5130286;27;20080;-51
2021/03/27 01:31:20;;;;;;;6.15;4.10;;;7.40;99.90;;;;;;5131126;27;20024;-53
2021/03/27 01:33:51;;;;;;;7.63;4.55;;;7.30;99.90;;;;;;5127092;27;20142;-51
2021/03/27 01:36:24;;;;;;;5.10;3.72;;;7.30;99.90;;;;;;5131034;27;20034;-53
2021/03/27 01:39:18;;;;;;;4.07;2.20;;;7.30;99.90;;;;;;5130861;27;20084;-54
2021/03/27 01:42:15;;;;;;;2.63;1.80;;;7.20;99.90;;;;;;5133789;27;20071;-51
2021/03/27 01:45:01;;;;;;;4.05;2.55;;;7.20;99.90;;;;;;5127337;27;20423;-51
2021/03/27 01:47:44;;;;;;;3.17;2.15;;;7.10;99.90;;;;;;5131369;27;20079;-51
2021/03/27 01:50:41;;;;;;;4.63;2.45;;;7.00;99.90;;;;;;5129964;27;20027;-52
2021/03/27 01:53:36;;;;;;;9.18;2.95;;;7.00;99.90;;;;;;5131773;27;20026;-53
2021/03/27 01:56:22;;;;;;;6.47;2.67;;;7.00;99.90;;;;;;5128122;27;20069;-52
2021/03/27 01:59:07;;;;;;;4.45;2.15;;;7.00;99.90;;;;;;5130666;27;20031;-52
2021/03/27 02:01:38;;;;;;;5.45;2.83;;;7.00;99.90;;;;;;5131003;27;20031;-54
2021/03/27 02:04:13;;;;;;;5.88;3.67;;;6.90;99.90;;;;;;5130520;27;20035;-54
2021/03/27 02:06:48;;;;;;;7.45;2.30;;;6.90;99.90;;;;;;5124014;27;20027;-53
2021/03/27 02:09:18;;;;;;;4.85;2.03;;;6.80;99.90;;;;;;5129080;27;20585;-51
2021/03/27 02:11:52;;;;;;;4.50;1.50;;;6.90;99.90;;;;;;5132154;27;20041;-51
2021/03/27 02:14:20;;;;;;;;;;;6.90;99.90;;;;;;5125718;27;20023;-55
2021/03/27 02:17:00;;;;;;;5.38;1.80;;;6.90;99.90;;;;;;5131020;27;19911;-55
2021/03/27 02:19:44;;;;;;;7.97;1.45;;;6.90;99.90;;;;;;5129369;28;20076;-51
2021/03/27 02:22:30;;;;;;;4.47;1.10;;;6.90;99.90;;;;;;5129794;28;20039;-52
2021/03/27 02:25:14;;;;;;;6.03;1.30;;;6.90;99.90;;;;;;5128104;28;20034;-51
2021/03/27 02:27:46;;;;;;;2.33;1.10;;;6.90;99.90;;;;;;5131673;27;20110;-50
2021/03/27 02:30:26;;;;;;;3.53;1.40;;;6.80;99.90;;;;;;5126150;27;20449;-51
2021/03/27 02:33:14;;;;;;;5.18;1.40;;;6.80;99.90;;;;;;5129779;28;20050;-50
2021/03/27 02:35:51;;;;;;;4.80;1.48;;;6.80;99.90;;;;;;5123762;28;20063;-51
2021/03/27 02:38:40;;;;;;;4.40;2.05;;;6.80;99.90;;;;;;5130740;27;20079;-52
2021/03/27 02:41:37;;;;;;;6.30;2.10;;;6.80;99.90;;;;;;5129492;28;20542;-54
2021/03/27 02:44:26;;;;;;;6.70;1.92;;;6.70;99.90;;;;;;5128845;28;20027;-51
2021/03/27 02:47:16;;;;;;;6.10;2.25;;;6.70;99.90;;;;;;5109699;28;20588;-53
2021/03/27 02:50:03;;;;;;;5.38;1.98;;;6.70;99.90;;;;;;5119602;28;20610;-51
2021/03/27 02:52:58;;;;;;;5.18;1.77;;;6.80;99.90;;;;;;5123777;28;20079;-55
2021/03/27 02:55:47;;;;;;;2.90;2.00;;;6.80;99.90;;;;;;5130047;27;20030;-51
2021/03/27 02:58:31;;;;;;;3.25;1.80;;;6.70;99.90;;;;;;5129068;28;20031;-50
2021/03/27 03:01:08;;;;;;;5.90;2.10;;;6.70;99.90;;;;;;5129570;28;20027;-51
2021/03/27 03:04:00;;;;;;;2.17;1.75;;;6.70;99.90;;;;;;5129344;28;20031;-52
2021/03/27 03:06:51;;;;;;;6.03;1.80;;;6.70;99.90;;;;;;5127902;27;20030;-51
2021/03/27 03:09:34;;;;;;;4.25;1.63;;;6.70;99.90;;;;;;5128860;28;20286;-56
2021/03/27 03:12:09;;;;;;;4.28;1.67;;;6.70;99.90;;;;;;5126813;28;20457;-55
2021/03/27 03:14:56;;;;;;;6.57;1.60;;;6.70;99.90;;;;;;5127208;28;20124;-53
2021/03/27 03:17:37;;;;;;;6.68;1.70;;;6.70;99.90;;;;;;5127422;28;20058;-51
2021/03/27 03:20:41;;;;;;;3.90;1.70;;;6.60;99.90;;;;;;5125547;27;20599;-51
2021/03/27 03:23:33;;;;;;;7.05;1.80;;;6.70;99.90;;;;;;5128750;28;20027;-56
2021/03/27 03:26:17;;;;;;;9.77;2.00;;;6.70;99.90;;;;;;5126942;28;20107;-52
2021/03/27 03:28:42;;;;;;;9.23;3.10;;;6.70;99.90;;;;;;5126268;27;20133;-54
2021/03/27 03:31:43;;;;;;;11.65;2.13;;;6.80;99.90;;;;;;5134339;27;20106;-54
2021/03/27 03:34:47;;;;;;;6.35;1.77;;;6.80;99.90;;;;;;5127094;27;20036;-51
2021/03/27 03:37:21;;;;;;;6.47;1.90;;;6.80;99.90;;;;;;5132093;27;20035;-50
2021/03/27 03:40:06;;;;;;;;;;;6.90;99.90;;;;;;5133340;27;20035;-51
2021/03/27 03:42:58;;;;;;;10.23;2.60;;;6.80;99.90;;;;;;5126549;27;19907;-52
2021/03/27 03:45:42;;;;;;;9.88;2.22;;;6.90;99.90;;;;;;5129957;27;20031;-51
2021/03/27 03:48:32;;;;;;;5.20;1.92;;;6.90;99.90;;;;;;5134864;27;20050;-54
2021/03/27 03:51:12;;;;;;;15.25;2.78;;;6.90;99.90;;;;;;5130702;27;20027;-55
2021/03/27 03:54:11;;;;;;;12.30;2.35;;;6.80;99.90;;;;;;5127702;27;20621;-51
2021/03/27 03:56:52;;;;;;;10.13;2.20;;;6.80;99.90;;;;;;5132116;27;20626;-51
2021/03/27 03:59:39;;;;;;;7.97;2.17;;;6.80;99.90;;;;;;5128244;27;20442;-52
2021/03/27 04:02:14;;;;;;;10.35;1.98;;;6.80;99.90;;;;;;5129568;27;20535;-52
2021/03/27 04:04:49;;;;;;;10.05;2.28;;;6.80;99.90;;;;;;5131328;27;20065;-55
2021/03/27 04:07:20;;;;;;;7.00;1.98;;;6.80;99.90;;;;;;5125756;27;20023;-54
2021/03/27 04:09:53;;;;;;;12.65;2.10;;;6.80;99.90;;;;;;5130533;27;20132;-52
2021/03/27 04:12:45;;;;;;;9.18;2.25;;;6.80;99.90;;;;;;5132382;27;20039;-54
2021/03/27 04:15:39;;;;;;;10.70;2.08;;;6.80;99.90;;;;;;5132845;27;20051;-53
2021/03/27 04:18:39;;;;;;;12.68;2.58;;;6.80;99.90;;;;;;5130698;27;20054;-51
2021/03/27 04:21:21;;;;;;;14.63;2.20;;;6.70;99.90;;;;;;5129682;27;20425;-53
2021/03/27 04:24:04;;;;;;;12.18;2.05;;;6.70;99.90;;;;;;5132764;27;20031;-55
2021/03/27 04:26:36;;;;;;;7.10;1.73;;;6.70;99.90;;;;;;5127808;27;20020;-54
2021/03/27 04:29:31;;;;;;;20.23;2.25;;;6.60;99.90;;;;;;5129816;27;20015;-55
2021/03/27 04:32:18;;;;;;;9.32;2.03;;;6.60;99.90;;;;;;5131474;27;20011;-55
2021/03/27 04:35:09;;;;;;;6.05;1.63;;;6.60;99.90;;;;;;5123541;27;20447;-51
2021/03/27 04:37:51;;;;;;;11.55;1.90;;;6.50;99.90;;;;;;5113871;27;20501;-55
2021/03/27 04:40:35;;;;;;;11.77;1.92;;;6.50;99.90;;;;;;5126476;27;20446;-54
2021/03/27 04:43:09;;;;;;;10.35;1.77;;;6.40;99.90;;;;;;5129632;27;20549;-54
2021/03/27 04:45:42;;;;;;;;;;;6.50;99.90;;;;;;5132203;27;20027;-52
2021/03/27 04:48:20;;;;;;;20.30;3.22;;;6.40;99.90;;;;;;5131329;27;19907;-54
2021/03/27 04:51:12;;;;;;;11.50;2.30;;;6.40;99.90;;;;;;5127459;27;20037;-51
2021/03/27 04:53:48;;;;;;;17.75;3.13;;;6.40;99.90;;;;;;5129424;27;20023;-50
2021/03/27 04:56:29;;;;;;;16.33;4.55;;;6.30;99.90;;;;;;5132523;27;20030;-50
2021/03/27 04:59:04;;;;;;;18.90;4.97;;;6.40;99.90;;;;;;5128768;27;20023;-51
2021/03/27 05:01:46;;;;;;;19.10;3.90;;;6.40;99.90;;;;;;5131288;27;20050;-51
2021/03/27 05:04:17;;;;;;;21.13;4.30;;;6.40;99.90;;;;;;5130352;27;20914;-52
2021/03/27 05:06:53;;;;;;;17.58;4.65;;;6.40;99.90;;;;;;5133216;27;20047;-50
2021/03/27 05:09:28;;;;;;;22.00;3.90;;;6.40;99.90;;;;;;5131139;27;20544;-50
2021/03/27 05:11:59;;;;;;;21.48;4.05;;;6.40;99.90;;;;;;5130947;27;20060;-52
2021/03/27 05:15:02;;;;;;;20.65;3.60;;;6.40;99.90;;;;;;5126306;27;20072;-51
2021/03/27 05:17:45;;;;;;;16.40;3.63;;;6.40;99.90;;;;;;5132608;27;20028;-51
2021/03/27 05:20:20;;;;;;;21.88;4.78;;;6.40;99.90;;;;;;5128427;27;20093;-51
2021/03/27 05:22:50;;;;;;;13.65;3.78;;;6.40;99.90;;;;;;5133471;27;20425;-50
2021/03/27 05:25:28;;;;;;;16.20;3.72;;;6.50;99.90;;;;;;5132039;27;20531;-50
2021/03/27 05:28:12;;;;;;;17.17;2.80;;;6.50;99.90;;;;;;5133345;27;20046;-51
2021/03/27 05:31:18;;;;;;;18.67;3.33;;;6.60;99.90;;;;;;5132073;27;20027;-51
2021/03/27 05:34:23;;;;;;;12.13;3.28;;;6.60;99.90;;;;;;5057521;27;20508;-51
2021/03/27 05:37:11;;;;;;;19.55;4.13;;;6.70;99.90;;;;;;5128571;27;20107;-54
2021/03/27 05:40:02;;;;;;;24.33;4.43;;;6.80;99.90;;;;;;5133229;27;20034;-50
2021/03/27 05:43:15;;;;;;;20.40;4.03;;;6.80;99.90;;;;;;5132645;27;20029;-50
2021/03/27 05:46:06;;;;;;;18.42;4.03;;;6.90;99.90;;;;;;5024670;28;20452;-52
2021/03/27 05:48:50;;;;;;;15.90;4.15;;;6.90;99.90;;;;;;5028373;28;20080;-53
2021/03/27 05:51:49;;;;;;;20.55;5.93;;;6.90;99.90;;;;;;5110463;27;20045;-51
2021/03/27 05:54:29;;;;;;;17.25;4.70;;;7.00;99.90;;;;;;5129629;27;20030;-51
2021/03/27 05:57:34;;;;;;;16.08;4.18;;;7.00;99.90;;;;;;5129809;27;20046;-50
2021/03/27 06:00:36;;;;;;;15.40;3.38;;;7.00;99.90;;;;;;5129689;27;20035;-53
2021/03/27 06:03:05;;;;;;;13.52;2.72;;;7.00;99.90;;;;;;5130043;27;20102;-52
2021/03/27 06:05:45;;;;;;;15.02;3.15;;;7.10;99.90;;;;;;5129236;27;20377;-51
2021/03/27 06:08:17;;;;;;;21.98;2.55;;;7.10;99.90;;;;;;5129241;27;20015;-50
2021/03/27 06:11:20;;;;;;;22.85;3.40;;;7.10;99.90;;;;;;5128675;27;20034;-52
2021/03/27 06:14:04;;;;;;;17.30;2.47;;;7.10;99.90;;;;;;5130222;27;20019;-51
2021/03/27 06:16:32;;;;;;;13.50;3.08;;;7.10;99.90;;;;;;5129967;27;20038;-52
2021/03/27 06:19:39;;;;;;;14.27;3.75;;;7.20;99.90;;;;;;5129904;28;20037;-51
2021/03/27 06:22:37;;;;;;;17.90;3.60;;;7.20;99.90;;;;;;5107105;28;20040;-54
2021/03/27 06:25:24;;;;;;;22.73;4.50;;;7.30;99.90;;;;;;5130943;28;20120;-52
2021/03/27 06:28:35;;;;;;;13.57;3.83;;;7.40;99.90;;;;;;5125619;27;20031;-55
2021/03/27 06:31:35;;;;;;;18.63;3.40;;;7.50;99.90;;;;;;5129919;27;20015;-55
2021/03/27 06:34:38;;;;;;;16.02;3.60;;;7.60;99.90;;;;;;5127388;28;20050;-52
2021/03/27 06:37:34;;;;;;;18.20;3.45;;;7.60;99.90;;;;;;5129569;28;20019;-54
2021/03/27 06:40:17;;;;;;;18.02;3.53;;;7.60;99.90;;;;;;5130081;28;20027;-54
2021/03/27 06:43:05;;;;;;;14.65;3.53;;;7.60;99.90;;;;;;5130393;28;20033;-55
2021/03/27 06:45:45;;;;;;;16.27;3.58;;;7.60;99.90;;;;;;5127328;27;20020;-56
2021/03/27 06:48:13;;;;;;;13.63;4.53;;;7.50;99.90;;;;;;5124010;28;20106;-54
2021/03/27 06:50:49;;;;;;;14.73;4.60;;;7.20;99.90;;;;;;5129491;28;20075;-53
2021/03/27 06:53:50;;;;;;;26.55;4.78;;;7.00;99.90;;;;;;5130963;28;20106;-55
2021/03/27 06:57:00;;;;;;;9.00;2.80;;;6.90;99.90;;;;;;5122478;28;20047;-54
2021/03/27 07:00:17;;;;;;;5.32;1.27;;;6.50;99.90;;;;;;5068934;28;20079;-51
2021/03/27 07:02:42;;;;;;;4.57;1.40;;;6.10;99.90;;;;;;5102883;27;20031;-51
2021/03/27 07:05:29;;;;;;;5.72;1.13;;;5.90;99.90;;;;;;5130820;27;20024;-54
2021/03/27 07:08:29;;;;;;;2.13;0.90;;;5.60;99.90;;;;;;5135494;27;20046;-55
2021/03/27 07:10:57;;;;;;;7.80;1.40;;;5.40;99.90;;;;;;5131642;27;20509;-55
2021/03/27 07:13:31;;;;;;;4.35;2.15;;;5.20;99.90;;;;;;5135336;27;20027;-51
2021/03/27 07:16:15;;;;;;;15.15;6.47;;;5.10;99.90;;;;;;5135500;27;20374;-52
2021/03/27 07:19:09;;;;;;;15.73;6.53;;;5.00;99.90;;;;;;5135891;27;20023;-51
2021/03/27 07:22:09;;;;;;;14.27;6.60;;;4.90;99.90;;;;;;5129058;27;20034;-54
2021/03/27 07:25:01;;;;;;;18.55;5.35;;;4.90;99.90;;;;;;5132159;27;20114;-53
2021/03/27 07:27:52;;;;;;;20.20;5.45;;;4.90;99.90;;;;;;5132300;27;20031;-51
2021/03/27 07:30:54;;;;;;;17.02;5.30;;;4.80;99.90;;;;;;5129864;27;20032;-52
2021/03/27 07:33:46;;;;;;;17.95;6.68;;;4.80;99.90;;;;;;5131755;27;20038;-54
2021/03/27 07:36:49;;;;;;;15.32;6.65;;;4.80;99.90;;;;;;5132554;27;20080;-49
2021/03/27 07:39:32;;;;;;;10.95;6.07;;;4.80;99.90;;;;;;5132376;27;20031;-51
2021/03/27 07:41:58;;;;;;;13.53;7.03;;;4.80;99.90;;;;;;5129738;27;20401;-53
2021/03/27 07:44:40;;;;;;;9.88;6.93;;;4.90;99.90;;;;;;5132005;27;20088;-50
2021/03/27 07:47:53;;;;;;;6.88;6.10;;;5.00;99.90;;;;;;5138937;27;20433;-49
2021/03/27 07:50:26;;;;;;;6.20;4.53;;;5.20;99.90;;;;;;5100021;27;20043;-49
2021/03/27 07:53:10;;;;;;;8.13;4.50;;;5.20;99.90;;;;;;5136510;27;20019;-49
2021/03/27 07:55:54;;;;;;;9.02;3.53;;;5.30;99.90;;;;;;5134058;27;20046;-48
2021/03/27 07:58:26;;;;;;;3.38;2.40;;;5.40;99.90;;;;;;5131956;27;20087;-49
2021/03/27 08:01:32;;;;;;;3.50;2.13;;;5.40;99.90;;;;;;5131976;27;20023;-48
2021/03/27 08:04:16;;;;;;;4.30;1.98;;;5.60;99.90;;;;;;5132071;27;20531;-50
2021/03/27 08:07:04;;;;;;;4.85;0.82;;;5.80;99.90;;;;;;5134299;27;20063;-49
2021/03/27 08:10:20;;;;;;;5.88;0.95;;;5.90;99.90;;;;;;5131293;27;20020;-52
2021/03/27 08:13:01;;;;;;;6.25;1.10;;;6.00;99.90;;;;;;5021422;28;20060;-49
2021/03/27 08:15:59;;;;;;;12.10;1.58;;;6.10;99.90;;;;;;5037707;28;20285;-47
2021/03/27 08:19:10;;;;;;;5.25;1.02;;;6.20;99.90;;;;;;5122068;27;20501;-50
2021/03/27 08:22:00;;;;;;;8.68;1.27;;;6.40;99.90;;;;;;5118432;27;20419;-49
2021/03/27 08:24:42;;;;;;;8.27;1.70;;;6.60;99.90;;;;;;5132503;27;20054;-50
2021/03/27 08:27:42;;;;;;;3.67;1.27;;;6.70;99.90;;;;;;5132777;27;20053;-49
2021/03/27 08:30:35;;;;;;;7.32;2.00;;;6.80;99.90;;;;;;5132771;27;20026;-51
2021/03/27 08:33:21;;;;;;;9.45;2.10;;;7.00;99.90;;;;;;5135923;27;20027;-51
2021/03/27 08:36:39;;;;;;;14.50;2.92;;;7.10;99.90;;;;;;5133801;27;20026;-48
2021/03/27 08:39:17;;;;;;;9.27;1.90;;;7.10;99.90;;;;;;5138931;27;20045;-49
2021/03/27 08:42:11;;;;;;;5.75;1.58;;;7.10;99.90;;;;;;5131503;27;20034;-51
2021/03/27 08:44:49;;;;;;;13.55;2.00;;;7.20;99.90;;;;;;5135223;27;20023;-50
2021/03/27 08:47:43;;;;;;;10.48;2.28;;;7.30;99.90;;;;;;5134102;27;20038;-49
2021/03/27 08:50:18;;;;;;;10.68;1.85;;;7.50;99.90;;;;;;5138767;27;20029;-51
2021/03/27 08:52:46;;;;;;;;;;;7.60;99.90;;;;;;5127738;27;20462;-52
2021/03/27 08:55:39;;;;;;;11.70;3.05;;;7.60;99.90;;;;;;5127821;27;20001;-53
2021/03/27 08:58:10;;;;;;;20.63;2.63;;;7.60;99.90;;;;;;5134318;27;20027;-52
2021/03/27 09:01:13;;;;;;;13.15;2.60;;;7.70;99.90;;;;;;5132598;27;20407;-49
2021/03/27 09:04:06;;;;;;;19.35;3.20;;;7.80;99.90;;;;;;5133268;27;20031;-53
2021/03/27 09:06:50;;;;;;;15.15;2.92;;;8.00;99.90;;;;;;5131533;27;20043;-49
2021/03/27 09:09:22;;;;;;;16.52;3.83;;;7.90;99.90;;;;;;5136596;27;20391;-51
2021/03/27 09:12:09;;;;;;;23.95;3.78;;;7.80;99.90;;;;;;5135584;27;20095;-51
2021/03/27 09:15:01;;;;;;;15.10;3.05;;;7.80;99.90;;;;;;5131393;27;20429;-49
2021/03/27 09:18:04;;;;;;;12.95;2.83;;;7.90;99.90;;;;;;5126266;27;20265;-50
2021/03/27 09:21:00;;;;;;;6.88;2.20;;;8.10;99.90;;;;;;5113358;27;20038;-48
2021/03/27 09:24:03;;;;;;;20.27;5.10;;;8.30;99.90;;;;;;5132429;27;20031;-49
2021/03/27 09:27:05;;;;;;;20.17;2.90;;;8.60;99.90;;;;;;5131807;27;20053;-49
2021/03/27 09:29:53;;;;;;;5.45;2.17;;;8.80;99.90;;;;;;5129778;27;20068;-53
2021/03/27 09:32:56;;;;;;;12.70;3.15;;;8.80;99.90;;;;;;5130329;27;20020;-50
2021/03/27 09:35:56;;;;;;;20.23;2.50;;;8.70;99.90;;;;;;5128398;27;20034;-49
2021/03/27 09:38:38;;;;;;;16.83;2.75;;;8.90;99.90;;;;;;5131077;27;20043;-50
2021/03/27 09:41:30;;;;;;;11.60;2.05;;;8.90;99.90;;;;;;5130482;27;20065;-50
2021/03/27 09:44:16;;;;;;;13.77;2.10;;;9.00;99.90;;;;;;5125468;27;20031;-49
2021/03/27 09:47:18;;;;;;;15.20;2.53;;;9.10;99.90;;;;;;5130166;27;20023;-49
2021/03/27 09:50:15;;;;;;;22.05;3.47;;;9.40;99.90;;;;;;5127461;27;20034;-49
2021/03/27 09:52:59;;;;;;;16.35;2.35;;;9.60;99.90;;;;;;5130682;27;20019;-53
2021/03/27 09:55:52;;;;;;;23.20;2.63;;;9.70;99.90;;;;;;5132022;27;20042;-50
2021/03/27 09:58:40;;;;;;;14.57;3.40;;;9.80;99.90;;;;;;5126525;27;20409;-49
2021/03/27 10:01:20;;;;;;;16.45;4.65;;;9.80;99.90;;;;;;5128607;27;20023;-49
2021/03/27 10:04:06;;;;;;;18.38;3.47;;;10.00;99.90;;;;;;5131575;27;20027;-52
2021/03/27 10:06:56;;;;;;;11.30;2.70;;;10.20;99.90;;;;;;5129727;27;20541;-49
2021/03/27 10:09:45;;;;;;;15.73;3.13;;;10.40;99.90;;;;;;5127093;27;20029;-52
2021/03/27 10:12:42;;;;;;;15.48;2.22;;;10.20;99.90;;;;;;5128705;27;20053;-51
2021/03/27 10:15:21;;;;;;;9.60;1.50;;;9.80;99.90;;;;;;5131916;27;20484;-52
2021/03/27 10:17:54;;;;;;;9.27;2.00;;;9.30;99.90;;;;;;5129090;27;20296;-49
2021/03/27 10:20:38;;;;;;;13.15;2.60;;;9.50;99.90;;;;;;5129491;27;20057;-53
2021/03/27 10:23:22;;;;;;;12.88;2.25;;;9.50;99.90;;;;;;5128833;27;20023;-53
2021/03/27 10:26:15;;;;;;;11.48;2.17;;;9.30;99.90;;;;;;5127203;28;20027;-52
2021/03/27 10:28:57;;;;;;;9.95;1.98;;;8.90;99.90;;;;;;5107311;28;20020;-51
2021/03/27 10:31:40;;;;;;;15.45;2.83;;;8.40;99.90;;;;;;5132904;27;20106;-50
2021/03/27 10:34:16;;;;;;;16.70;3.50;;;7.40;99.90;;;;;;5128068;28;20027;-52
2021/03/27 10:37:04;;;;;;;13.13;2.40;;;7.70;99.90;;;;;;5132550;27;20106;-50
2021/03/27 10:39:54;;;;;;;10.82;2.17;;;8.20;99.90;;;;;;5134805;27;20091;-52
2021/03/27 10:42:32;;;;;;;20.92;2.45;;;8.60;99.90;;;;;;5131464;27;20110;-52
2021/03/27 10:45:13;;;;;;;11.88;2.40;;;8.80;99.90;;;;;;5133541;27;20055;-51
2021/03/27 10:47:51;;;;;;;17.35;3.10;;;8.70;99.90;;;;;;5132960;27;20027;-50
2021/03/27 10:50:58;;;;;;;18.35;3.63;;;8.80;99.90;;;;;;5135413;27;20053;-49
2021/03/27 10:53:50;;;;;;;13.00;2.38;;;9.30;99.90;;;;;;5133846;27;20027;-52
2021/03/27 10:56:26;;;;;;;15.63;1.70;;;9.80;99.90;;;;;;5135103;27;20027;-53
2021/03/27 10:59:25;;;;;;;12.98;1.88;;;10.00;99.90;;;;;;5135310;27;20495;-51
2021/03/27 11:02:28;;;;;;;16.73;2.30;;;10.30;99.90;;;;;;5114590;27;20030;-51
2021/03/27 11:05:18;;;;;;;9.98;1.75;;;10.40;99.90;;;;;;5134788;27;20023;-48
2021/03/27 11:07:48;;;;;;;8.93;1.65;;;10.10;99.90;;;;;;5136603;27;20030;-52
2021/03/27 11:10:34;;;;;;;9.60;2.65;;;9.80;99.90;;;;;;5136631;27;20030;-49
2021/03/27 11:13:24;;;;;;;8.68;2.17;;;9.60;99.90;;;;;;5129761;27;20030;-50
2021/03/27 11:16:26;;;;;;;11.07;2.17;;;9.70;99.90;;;;;;5132889;27;20030;-49
2021/03/27 11:19:30;;;;;;;7.85;1.63;;;10.10;99.90;;;;;;5134917;27;20049;-49
2021/03/27 11:22:22;;;;;;;12.07;1.77;;;10.10;99.90;;;;;;5140303;22;20102;-55
2021/03/27 11:24:56;;;;;;;10.43;1.75;;;9.70;99.90;;;;;;5088556;28;20403;-54
2021/03/27 11:27:34;;;;;;;;;;;9.90;99.90;;;;;;5081313;28;20028;-55
2021/03/27 11:30:04;;;;;;;4.75;1.63;;;9.70;99.90;;;;;;5082579;28;20391;-57
2021/03/27 11:32:40;;;;;;;6.10;1.63;;;9.70;99.90;;;;;;5085091;28;20020;-56
2021/03/27 11:35:24;;;;;;;12.27;2.28;;;9.80;99.90;;;;;;5081431;28;20017;-55
2021/03/27 11:37:52;;;;;;;13.35;2.50;;;10.00;99.90;;;;;;5079957;28;20031;-57
2021/03/27 11:40:47;;;;;;;10.60;2.15;;;10.40;99.90;;;;;;5085361;28;20029;-56
2021/03/27 11:43:30;;;;;;;8.73;2.60;;;10.20;99.90;;;;;;5077439;28;20042;-57
2021/03/27 11:46:05;;;;;;;6.80;1.88;;;10.20;99.90;;;;;;5078396;28;20031;-57
2021/03/27 11:48:45;;;;;;;17.02;3.13;;;10.30;99.90;;;;;;5079569;28;20020;-58
2021/03/27 11:51:15;;;;;;;9.63;1.88;;;10.70;99.90;;;;;;5058029;28;20031;-58
2021/03/27 11:54:05;;;;;;;9.85;2.03;;;10.70;99.90;;;;;;5080874;28;20035;-59
2021/03/27 11:56:57;;;;;;;8.07;2.00;;;11.10;99.90;;;;;;5084618;28;20434;-57
2021/03/27 12:03:04;;;;;;;11.23;2.33;;;11.30;99.90;;;;;;5074213;28;20151;-56
2021/03/27 12:05:38;;;;;;;5.03;1.52;;;10.90;99.90;;;;;;5085470;28;20240;-56
2021/03/27 12:08:06;;;;;;;8.65;2.67;;;10.70;99.90;;;;;;5081659;28;20162;-58
2021/03/27 12:10:50;;;;;;;7.30;2.60;;;10.80;99.90;;;;;;5086098;28;20032;-57
2021/03/27 12:13:58;;;;;;;16.58;2.33;;;11.00;99.90;;;;;;5082722;28;20405;-57
2021/03/27 12:16:42;;;;;;;7.68;2.10;;;11.50;99.90;;;;;;5085614;28;20035;-57
2021/03/27 12:19:33;;;;;;;12.18;1.83;;;11.60;99.90;;;;;;5084992;28;20456;-57
2021/03/27 12:22:18;;;;;;;11.27;2.13;;;11.10;99.90;;;;;;5085288;28;20111;-58
2021/03/27 12:25:13;;;;;;;11.55;1.73;;;10.90;99.90;;;;;;5084838;28;20019;-57
2021/03/27 12:27:44;;;;;;;7.63;1.88;;;10.50;99.90;;;;;;5081935;28;20386;-58
2021/03/27 12:30:36;;;;;;;8.48;1.42;;;10.40;99.90;;;;;;5079920;28;20439;-57
2021/03/27 12:33:15;;;;;;;8.50;1.70;;;10.70;99.90;;;;;;5071196;28;20033;-57
2021/03/27 12:35:44;;;;;;;6.57;1.58;;;10.90;99.90;;;;;;5080378;28;20020;-56
2021/03/27 12:38:20;;;;;;;8.15;1.90;;;11.10;99.90;;;;;;5079066;28;20379;-57
2021/03/27 12:40:58;;;;;;;10.48;1.70;;;11.00;99.90;;;;;;5077014;28;20035;-57
2021/03/27 12:43:29;;;;;;;6.25;1.60;;;11.10;99.90;;;;;;5077701;28;20072;-56
2021/03/27 12:46:22;;;;;;;4.65;1.80;;;11.20;99.90;;;;;;5077292;28;20024;-56
2021/03/27 12:49:20;;;;;;;8.73;1.65;;;11.40;99.90;;;;;;5079698;28;20046;-56
2021/03/27 12:52:13;;;;;;;6.07;1.27;;;11.60;99.90;;;;;;5082474;28;20032;-55
2021/03/27 12:54:51;;;;;;;5.80;1.50;;;11.40;99.90;;;;;;5085898;28;20020;-54
2021/03/27 12:57:40;;;;;;;5.53;1.38;;;11.20;99.90;;;;;;5080606;28;20529;-55
2021/03/27 13:00:43;;;;;;;6.05;1.58;;;11.40;99.90;;;;;;5083565;28;20486;-56
2021/03/27 13:03:17;;;;;;;9.82;1.30;;;11.20;99.90;;;;;;5087632;28;20020;-57
2021/03/27 13:05:47;;;;;;;;;;;11.10;99.90;;;;;;5080980;28;20166;-57
2021/03/27 13:08:19;;;;;;;4.93;1.15;;;11.20;99.90;;;;;;5084586;28;19943;-57
2021/03/27 13:11:18;;;;;;;7.78;1.48;;;11.60;99.90;;;;;;5083837;28;20020;-58
2021/03/27 13:13:55;;;;;;;9.18;1.67;;;11.70;99.90;;;;;;5064960;28;20024;-57
2021/03/27 13:16:46;;;;;;;7.43;2.15;;;12.00;99.90;;;;;;5081839;28;20031;-57
2021/03/27 13:19:29;;;;;;;7.03;1.85;;;12.10;99.90;;;;;;5086283;28;20581;-58
2021/03/27 13:22:07;;;;;;;6.13;2.50;;;11.80;99.90;;;;;;5054366;28;20432;-56
2021/03/27 13:24:32;;;;;;;8.40;1.77;;;12.00;99.90;;;;;;5041082;28;20033;-55
2021/03/27 13:27:28;;;;;;;9.60;2.38;;;12.20;99.90;;;;;;5039369;28;20030;-53
2021/03/27 13:29:56;;;;;;;;;;;12.30;99.90;;;;;;5040880;28;20045;-53
2021/03/27 13:32:31;;;;;;;9.23;2.60;;;12.70;99.90;;;;;;5040318;28;19909;-53
2021/03/27 13:35:22;;;;;;;7.43;1.83;;;12.90;99.90;;;;;;5037731;28;20034;-54
2021/03/27 13:37:56;;;;;;;13.65;2.58;;;13.00;99.90;;;;;;5033634;28;20407;-56
2021/03/27 13:40:26;;;;;;;5.85;2.15;;;13.30;99.90;;;;;;5034079;28;20025;-54
2021/03/27 13:43:16;;;;;;;7.53;2.22;;;13.20;99.90;;;;;;5039934;28;20080;-57
2021/03/27 13:46:01;;;;;;;7.90;1.95;;;12.90;99.90;;;;;;5035835;28;20133;-59
2021/03/27 13:48:29;;;;;;;10.48;1.95;;;12.50;99.90;;;;;;5039225;28;20029;-56
2021/03/27 13:51:13;;;;;;;5.85;2.10;;;12.40;99.90;;;;;;5037235;28;20541;-57
2021/03/27 13:54:16;;;;;;;9.25;2.17;;;12.40;99.90;;;;;;5035041;28;20040;-57
2021/03/27 13:56:53;;;;;;;6.47;2.05;;;12.50;99.90;;;;;;5037958;28;20155;-56
2021/03/27 13:59:58;;;;;;;11.35;2.28;;;12.90;99.90;;;;;;5038190;28;20026;-58
2021/03/27 14:02:41;;;;;;;7.45;1.52;;;13.30;99.90;;;;;;5036585;28;20041;-57
2021/03/27 14:05:07;;;;;;;10.53;1.70;;;13.10;99.90;;;;;;5029915;28;20113;-57
2021/03/27 14:07:46;;;;;;;4.50;1.33;;;12.80;99.90;;;;;;5037020;28;20176;-57
2021/03/27 14:10:29;;;;;;;6.95;1.52;;;12.40;99.90;;;;;;5042099;28;20444;-56
2021/03/27 14:13:10;;;;;;;26.88;3.70;;;12.50;99.90;;;;;;5040478;28;20060;-55
2021/03/27 14:16:00;;;;;;;10.18;1.45;;;12.70;99.90;;;;;;5035899;28;20047;-57
2021/03/27 14:18:47;;;;;;;8.55;1.75;;;12.60;99.90;;;;;;5038144;28;20042;-57
2021/03/27 14:21:28;;;;;;;7.97;1.92;;;12.70;99.10;;;;;;5038194;28;20033;-57
2021/03/27 14:24:01;;;;;;;5.85;1.83;;;13.00;99.90;;;;;;5036481;28;20036;-56
2021/03/27 14:27:02;;;;;;;5.90;1.55;;;13.10;99.30;;;;;;5040397;28;20032;-56